Time;durP1;ratioP1;P1;durP2;ratioP2;P2;SDS_P1;SDS_P2;PMS_P1;PMS_P2;Temp;Humidity;BMP_temperature;BMP_pressure;BME280_temperature;BME280_humidity;BME280_pressure;Samples;Min_cycle;Max_cycle;Signal;HPM_P1;HPM_P2
2022/08/08 00:01:00;;;;;;;2.63;1.23;;;;;;;19.01;45.63;97068.81;5122548;28;20575;-77
2022/08/08 00:03:46;;;;;;;1.15;1.00;;;;;;;18.99;45.87;97064.78;5116095;28;20052;-78
2022/08/08 00:06:29;;;;;;;0.93;0.93;;;;;;;18.98;46.09;97063.16;5115616;28;20083;-77
2022/08/08 00:09:06;;;;;;;1.23;1.13;;;;;;;18.94;46.04;97062.81;5115735;28;20054;-78
2022/08/08 00:11:38;;;;;;;1.05;1.05;;;;;;;18.86;46.33;97061.25;5115262;28;20039;-78
2022/08/08 00:14:35;;;;;;;1.00;1.00;;;;;;;18.82;46.34;97068.03;5124441;27;20035;-77
2022/08/08 00:17:26;;;;;;;2.17;1.33;;;;;;;18.78;46.44;97066.84;5137568;27;20055;-77
2022/08/08 00:20:21;;;;;;;1.00;0.95;;;;;;;18.75;46.58;97062.00;5127374;28;20058;-77
2022/08/08 00:22:55;;;;;;;2.10;1.08;;;;;;;18.71;46.99;97066.09;5115607;28;20047;-76
2022/08/08 00:25:31;;;;;;;1.15;1.08;;;;;;;18.65;47.03;97073.09;5115299;28;20048;-77
2022/08/08 00:28:15;;;;;;;1.20;1.10;;;;;;;18.64;47.20;97070.66;5115703;28;20051;-77
2022/08/08 00:31:12;;;;;;;3.67;1.17;;;;;;;18.61;47.53;97073.75;5114986;27;20528;-77
2022/08/08 00:37:12;;;;;;;1.05;1.00;;;;;;;18.48;47.79;97067.59;5115042;28;20500;-77
2022/08/08 00:40:20;;;;;;;1.67;1.40;;;;;;;18.42;48.03;97068.47;5114386;27;20047;-77
2022/08/08 00:43:54;;;;;;;1.30;1.20;;;;;;;18.39;48.09;97065.44;5114967;27;20051;-77
2022/08/08 00:46:56;;;;;;;1.90;1.17;;;;;;;18.32;48.26;97074.28;5115027;28;20074;-78
2022/08/08 00:49:55;;;;;;;1.77;1.27;;;;;;;18.27;48.73;97068.03;5114906;28;20055;-78
2022/08/08 00:52:49;;;;;;;2.53;1.30;;;;;;;18.24;48.93;97073.75;5113027;28;20402;-77
2022/08/08 00:55:57;;;;;;;3.55;1.27;;;;;;;18.19;49.06;97065.66;5114525;28;20070;-78
2022/08/08 00:59:13;;;;;;;1.30;1.20;;;;;;;18.18;49.41;97071.97;5110147;28;20036;-77
2022/08/08 01:02:00;;;;;;;1.33;1.20;;;;;;;18.09;49.36;97061.69;5091229;28;20052;-77
2022/08/08 01:05:06;;;;;;;7.60;2.05;;;;;;;18.05;49.62;97068.44;5091251;28;20044;-80
2022/08/08 01:08:04;;;;;;;1.38;1.30;;;;;;;18.01;49.91;97074.38;5092623;28;20505;-80
2022/08/08 01:11:11;;;;;;;2.30;1.50;;;;;;;17.97;50.03;97073.97;5093125;28;20058;-79
2022/08/08 01:14:05;;;;;;;0.95;0.95;;;;;;;17.99;52.94;97069.28;5072523;28;20051;-80
2022/08/08 01:17:19;;;;;;;1.92;1.45;;;;;;;18.04;50.75;97074.75;5093470;28;20101;-80
2022/08/08 01:20:38;;;;;;;1.52;1.42;;;;;;;18.03;50.21;97073.13;5092990;28;20043;-79
2022/08/08 01:23:38;;;;;;;1.60;1.50;;;;;;;17.96;50.71;97076.84;5093185;28;20044;-80
2022/08/08 01:27:14;;;;;;;1.40;1.30;;;;;;;17.89;50.81;97076.91;5093307;28;20056;-80
2022/08/08 01:30:34;;;;;;;1.50;1.40;;;;;;;17.80;51.15;97071.06;5093129;28;20126;-80
2022/08/08 01:33:44;;;;;;;1.60;1.50;;;;;;;17.76;51.22;97080.44;5093138;28;20143;-79
2022/08/08 01:37:05;;;;;;;1.50;1.40;;;;;;;17.73;51.56;97090.59;5086936;28;20048;-80
2022/08/08 01:40:00;;;;;;;1.58;1.48;;;;;;;17.73;53.43;97082.69;5092973;28;20048;-79
2022/08/08 01:42:34;;;;;;;1.73;1.60;;;;;;;17.72;51.69;97087.16;5092842;28;20426;-80
2022/08/08 01:45:19;;;;;;;1.52;1.42;;;;;;;17.73;52.47;97090.59;5092452;28;20056;-80
2022/08/08 01:48:05;;;;;;;2.03;1.52;;;;;;;17.82;55.56;97089.34;5092908;28;20139;-79
2022/08/08 01:51:05;;;;;;;1.92;1.67;;;;;;;17.87;52.11;97086.88;5092480;28;20398;-80
2022/08/08 01:53:59;;;;;;;1.60;1.50;;;;;;;17.87;53.00;97085.03;5092784;28;20135;-79
2022/08/08 01:57:02;;;;;;;1.55;1.45;;;;;;;17.85;52.27;97081.81;5092730;28;20048;-80
2022/08/08 01:59:48;;;;;;;1.60;1.50;;;;;;;17.82;52.29;97081.41;5092811;28;20044;-80
2022/08/08 02:02:46;;;;;;;1.90;1.50;;;;;;;17.76;52.27;97088.34;5092465;28;20051;-80
2022/08/08 02:05:32;;;;;;;1.73;1.63;;;;;;;17.69;52.53;97077.84;5092527;28;20048;-79
2022/08/08 02:08:26;;;;;;;1.55;1.45;;;;;;;17.64;52.73;97085.59;5092649;28;20048;-80
2022/08/08 02:11:19;;;;;;;1.75;1.65;;;;;;;17.62;52.93;97085.03;5092203;28;20066;-79
2022/08/08 02:14:16;;;;;;;3.22;2.22;;;;;;;17.56;52.83;97090.31;5092682;28;20047;-79
2022/08/08 02:16:52;;;;;;;1.70;1.60;;;;;;;17.54;54.17;97085.28;5092582;28;20075;-79
2022/08/08 02:19:25;;;;;;;1.90;1.80;;;;;;;17.56;53.62;97088.50;5092391;28;20176;-80
2022/08/08 02:22:32;;;;;;;3.00;2.40;;;;;;;17.53;53.45;97088.91;5092167;28;20052;-79
2022/08/08 02:25:23;;;;;;;3.25;1.60;;;;;;;17.57;57.37;97089.31;5092413;28;20079;-80
2022/08/08 02:28:19;;;;;;;1.55;1.45;;;;;;;17.58;52.82;97080.34;5092194;28;20055;-80
2022/08/08 02:31:01;;;;;;;1.88;1.77;;;;;;;17.60;55.44;97079.16;5092086;28;20048;-79
2022/08/08 02:34:03;;;;;;;1.92;1.70;;;;;;;17.63;55.57;97076.06;5092222;28;20132;-79
2022/08/08 02:36:44;;;;;;;2.30;1.80;;;;;;;17.66;55.28;97083.53;5091933;28;20048;-80
2022/08/08 02:39:31;;;;;;;1.98;1.88;;;;;;;17.69;55.86;97077.06;5095551;28;20040;-77
2022/08/08 02:42:41;;;;;;;2.10;1.90;;;;;;;17.61;53.46;97082.59;5101931;28;20056;-77
2022/08/08 02:45:45;;;;;;;1.77;1.60;;;;;;;17.52;53.57;97082.03;5084363;28;20056;-77
2022/08/08 02:49:05;;;;;;;2.13;2.03;;;;;;;17.41;53.86;97072.97;5092511;28;20059;-77
2022/08/08 02:52:15;;;;;;;2.80;2.30;;;;;;;17.30;54.03;97071.84;5067281;28;20079;-77
2022/08/08 02:55:22;;;;;;;3.33;2.40;;;;;;;17.23;54.17;97064.97;5092688;28;20059;-77
2022/08/08 02:58:42;;;;;;;2.65;1.90;;;;;;;17.19;54.40;97069.06;5094840;28;20044;-77
2022/08/08 03:01:46;;;;;;;2.22;2.00;;;;;;;17.15;54.49;97070.53;5096293;28;20090;-77
2022/08/08 03:04:52;;;;;;;1.98;1.88;;;;;;;17.13;57.26;97077.81;5096692;28;20059;-77
2022/08/08 03:08:16;;;;;;;2.20;2.08;;;;;;;17.18;59.28;97086.69;5096729;28;20537;-77
2022/08/08 03:11:40;;;;;;;2.30;2.15;;;;;;;17.24;56.37;97085.88;5096203;28;20051;-77
2022/08/08 03:14:50;;;;;;;2.58;2.38;;;;;;;17.32;56.47;97081.34;5096375;28;20059;-76
2022/08/08 03:17:45;;;;;;;2.25;2.05;;;;;;;17.35;56.54;97083.56;5096364;28;20048;-77
2022/08/08 03:20:26;;;;;;;3.88;2.10;;;;;;;17.39;55.28;97092.69;5095823;28;20078;-77
2022/08/08 03:22:55;;;;;;;1.83;1.65;;;;;;;17.38;53.30;97097.16;5096184;28;20102;-77
2022/08/08 03:25:30;;;;;;;2.25;1.65;;;;;;;17.32;52.50;97095.34;5095918;28;20498;-77
2022/08/08 03:28:07;;;;;;;2.08;1.88;;;;;;;17.26;52.08;97099.66;5096007;28;20056;-77
2022/08/08 03:30:35;;;;;;;2.20;1.90;;;;;;;17.20;52.36;97097.84;5095651;28;20072;-77
2022/08/08 03:33:17;;;;;;;1.95;1.85;;;;;;;17.19;52.68;97100.72;5095619;28;20092;-77
2022/08/08 03:36:05;;;;;;;1.80;1.63;;;;;;;17.21;55.57;97107.38;5095817;28;20048;-77
2022/08/08 03:38:38;;;;;;;2.90;2.13;;;;;;;17.21;54.34;97107.38;5096094;28;20052;-77
2022/08/08 03:41:31;;;;;;;3.17;2.53;;;;;;;17.19;54.34;97109.41;5095488;28;20051;-77
2022/08/08 03:44:18;;;;;;;2.88;2.03;;;;;;;17.15;55.47;97110.88;5096122;28;20433;-77
2022/08/08 03:46:51;;;;;;;2.70;2.50;;;;;;;17.12;54.80;97113.94;5101045;28;20111;-77
2022/08/08 03:49:24;;;;;;;3.25;2.40;;;;;;;17.14;56.49;97122.41;5117762;28;20056;-77
2022/08/08 03:52:12;;;;;;;2.42;2.20;;;;;;;17.16;57.70;97115.09;5116031;28;20058;-77
2022/08/08 03:54:44;;;;;;;2.67;2.47;;;;;;;17.16;55.70;97119.56;5095607;28;20130;-77
2022/08/08 03:57:32;;;;;;;2.53;2.33;;;;;;;17.08;55.26;97120.63;5095696;28;20048;-77
2022/08/08 04:00:22;;;;;;;4.72;2.78;;;;;;;16.99;55.60;97124.50;5095088;28;20044;-77
2022/08/08 04:02:57;;;;;;;2.35;2.20;;;;;;;16.98;56.03;97121.06;5095243;28;20127;-76
2022/08/08 04:05:28;;;;;;;2.80;2.40;;;;;;;16.96;55.72;97119.66;5095086;28;20060;-77
2022/08/08 04:07:57;;;;;;;2.55;2.35;;;;;;;16.96;56.61;97124.94;5094809;28;20056;-77
2022/08/08 04:10:29;;;;;;;2.75;2.55;;;;;;;16.97;56.74;97127.38;5094826;28;20051;-77
2022/08/08 04:12:59;;;;;;;2.80;2.60;;;;;;;17.00;57.25;97124.31;5095653;28;20051;-77
2022/08/08 04:15:26;;;;;;;3.60;2.58;;;;;;;17.01;56.42;97123.31;5095242;28;20044;-77
2022/08/08 04:18:05;;;;;;;2.63;2.40;;;;;;;17.03;58.43;97125.72;5094785;28;20051;-77
2022/08/08 04:20:35;;;;;;;5.75;3.25;;;;;;;17.04;56.86;97127.34;5094705;28;20067;-77
2022/08/08 04:23:04;;;;;;;2.90;2.60;;;;;;;17.05;56.62;97134.22;5095363;28;20060;-77
2022/08/08 04:25:35;;;;;;;3.55;2.90;;;;;;;17.02;56.49;97139.91;5095209;28;20123;-77
2022/08/08 04:28:04;;;;;;;3.92;2.72;;;;;;;16.99;57.02;97130.59;5095234;28;20499;-77
2022/08/08 04:30:52;;;;;;;3.13;2.85;;;;;;;16.97;56.51;97137.13;5094984;28;20486;-77
2022/08/08 04:33:21;;;;;;;3.20;2.90;;;;;;;16.98;58.36;97141.34;5094872;28;20525;-77
2022/08/08 04:35:49;;;;;;;2.78;2.58;;;;;;;17.00;57.82;97145.38;5094964;28;20135;-77
2022/08/08 04:38:18;;;;;;;4.38;2.90;;;;;;;17.01;58.49;97143.56;5095563;28;20130;-77
2022/08/08 04:40:49;;;;;;;2.90;2.70;;;;;;;17.01;57.48;97149.66;5094449;28;20044;-77
2022/08/08 04:43:20;;;;;;;2.92;2.72;;;;;;;17.03;58.32;97150.25;5094567;28;20058;-76
2022/08/08 04:45:59;;;;;;;3.58;3.28;;;;;;;17.04;56.96;97158.97;5094765;28;20052;-77
2022/08/08 04:48:26;;;;;;;2.83;2.50;;;;;;;17.05;58.24;97160.56;5095036;28;20106;-76
2022/08/08 04:50:57;;;;;;;2.83;2.63;;;;;;;17.04;57.10;97154.50;5094764;28;20048;-77
2022/08/08 04:53:24;;;;;;;3.15;2.85;;;;;;;16.98;56.98;97157.16;5094310;28;20051;-77
2022/08/08 04:56:15;;;;;;;3.20;3.00;;;;;;;16.95;57.70;97160.22;5094609;28;20054;-77
2022/08/08 04:58:44;;;;;;;3.60;2.72;;;;;;;16.98;59.79;97162.44;5094642;28;20076;-77
2022/08/08 05:01:16;;;;;;;3.53;3.17;;;;;;;17.03;59.06;97167.88;5093754;28;20513;-77
2022/08/08 05:03:44;;;;;;;4.68;3.38;;;;;;;17.03;57.19;97167.88;5094154;28;20138;-79
2022/08/08 05:06:32;;;;;;;3.75;2.83;;;;;;;17.05;57.28;97165.84;5093981;28;20048;-77
2022/08/08 05:09:03;;;;;;;5.75;3.20;;;;;;;17.06;56.57;97167.47;5094441;28;20063;-79
2022/08/08 05:11:33;;;;;;;3.65;3.10;;;;;;;17.08;56.94;97168.09;5093507;28;20467;-78
2022/08/08 05:14:06;;;;;;;4.75;3.55;;;;;;;17.11;56.16;97165.00;5169049;22;20054;-78
2022/08/08 05:16:34;;;;;;;4.85;2.97;;;;;;;17.14;56.19;97158.50;5114302;28;20086;-79
2022/08/08 05:19:22;;;;;;;3.00;2.70;;;;;;;17.16;56.91;97157.28;5113916;28;20115;-78
2022/08/08 05:22:10;;;;;;;3.65;2.85;;;;;;;17.20;57.52;97162.94;5113775;28;20044;-79
2022/08/08 05:24:51;;;;;;;3.17;2.95;;;;;;;17.22;56.67;97164.34;5114961;28;20096;-79
2022/08/08 05:27:20;;;;;;;4.40;3.00;;;;;;;17.26;57.51;97175.31;5093745;28;20104;-78
2022/08/08 05:29:48;;;;;;;3.38;2.95;;;;;;;17.29;56.98;97178.34;5105513;28;20043;-72
2022/08/08 05:32:18;;;;;;;3.72;2.70;;;;;;;17.34;57.06;97169.78;5112554;28;20126;-72
2022/08/08 05:34:58;;;;;;;2.70;2.50;;;;;;;17.35;54.95;97171.41;5111456;28;20092;-72
2022/08/08 05:37:33;;;;;;;3.45;3.15;;;;;;;17.35;54.06;97175.88;5112246;28;20050;-72
2022/08/08 05:40:21;;;;;;;2.38;2.20;;;;;;;17.35;53.98;97176.66;5112577;28;20055;-73
2022/08/08 05:43:01;;;;;;;3.08;2.80;;;;;;;17.37;56.42;97182.53;5128089;28;20048;-72
2022/08/08 05:45:49;;;;;;;4.10;2.83;;;;;;;17.42;56.11;97176.63;5118051;28;20115;-72
2022/08/08 05:48:21;;;;;;;5.55;3.10;;;;;;;17.45;55.08;97178.88;5116533;28;20047;-71
2022/08/08 05:50:58;;;;;;;3.38;2.95;;;;;;;17.49;55.58;97187.94;5104325;28;20059;-73
2022/08/08 05:53:44;;;;;;;3.85;3.50;;;;;;;17.50;54.22;97179.84;5103599;28;20536;-72
2022/08/08 05:56:37;;;;;;;4.78;3.30;;;;;;;17.53;53.94;97183.88;5095225;28;20051;-72
2022/08/08 05:59:18;;;;;;;5.00;3.55;;;;;;;17.60;56.00;97182.03;5092309;28;20555;-72
2022/08/08 06:05:03;;;;;;;6.28;3.30;;;;;;;17.77;54.77;97190.22;5112441;28;20495;-73
2022/08/08 06:07:51;;;;;;;3.88;3.47;;;;;;;17.86;54.44;97193.44;5101774;28;20044;-73
2022/08/08 06:10:32;;;;;;;4.82;3.53;;;;;;;17.92;54.42;97197.88;5095409;28;20167;-72
2022/08/08 06:13:06;;;;;;;5.57;3.65;;;;;;;17.97;53.95;97198.03;5091897;28;20533;-73
2022/08/08 06:15:36;;;;;;;4.82;3.33;;;;;;;18.02;54.10;97200.84;5107889;28;20069;-73
2022/08/08 06:18:22;;;;;;;4.28;3.80;;;;;;;18.08;54.18;97200.00;5112601;28;20047;-73
2022/08/08 06:20:52;;;;;;;5.22;3.50;;;;;;;18.16;53.87;97203.41;5112157;28;20047;-73
2022/08/08 06:23:24;;;;;;;3.65;3.30;;;;;;;18.23;53.79;97204.16;5096788;28;20047;-73
2022/08/08 06:26:12;;;;;;;4.80;3.53;;;;;;;18.32;53.75;97202.84;5111346;28;20061;-74
2022/08/08 06:29:04;;;;;;;4.00;3.70;;;;;;;18.41;53.45;97211.31;5111752;28;20420;-74
2022/08/08 06:31:59;;;;;;;3.88;3.45;;;;;;;18.50;53.68;97212.69;5101087;28;20054;-73
2022/08/08 06:34:51;;;;;;;5.40;4.03;;;;;;;18.58;53.43;97212.38;5104163;28;20040;-72
2022/08/08 06:37:44;;;;;;;3.92;3.53;;;;;;;18.68;53.40;97212.69;5095828;28;20050;-73
2022/08/08 06:40:17;;;;;;;3.75;3.42;;;;;;;18.78;54.79;97212.22;5111610;28;20565;-73
2022/08/08 06:42:54;;;;;;;4.63;3.33;;;;;;;18.87;53.44;97218.00;5104701;28;20063;-72
2022/08/08 06:45:22;;;;;;;5.03;3.28;;;;;;;18.95;54.83;97215.09;5126888;28;20074;-73
2022/08/08 06:47:51;;;;;;;3.70;3.10;;;;;;;19.03;53.20;97219.28;5124293;28;20048;-74
2022/08/08 06:50:31;;;;;;;4.38;3.22;;;;;;;19.13;54.49;97219.56;5107696;28;20044;-73
2022/08/08 06:53:06;;;;;;;4.18;3.33;;;;;;;19.22;54.38;97217.44;5101227;28;20122;-73
2022/08/08 06:55:41;;;;;;;3.22;2.97;;;;;;;19.30;53.63;97214.50;5106976;28;20244;-73
2022/08/08 06:58:10;;;;;;;4.22;2.90;;;;;;;19.39;53.22;97223.75;5112202;28;20132;-72
2022/08/08 07:00:39;;;;;;;4.95;3.35;;;;;;;19.48;52.55;97225.06;5111765;28;20047;-72
2022/08/08 07:03:14;;;;;;;3.72;2.70;;;;;;;19.58;52.43;97221.06;5110991;28;20071;-72
2022/08/08 07:06:04;;;;;;;3.75;2.92;;;;;;;19.68;52.64;97216.06;5112274;28;20057;-73
2022/08/08 07:08:37;;;;;;;3.70;3.20;;;;;;;19.80;52.56;97224.06;5111743;28;20048;-72
2022/08/08 07:11:07;;;;;;;5.40;3.30;;;;;;;19.89;52.23;97217.41;5097461;28;20047;-77
2022/08/08 07:13:53;;;;;;;3.17;2.88;;;;;;;20.00;52.00;97219.28;5116698;28;20483;-79
2022/08/08 07:16:36;;;;;;;2.90;2.67;;;;;;;20.12;51.39;97221.97;5131297;28;20054;-78
2022/08/08 07:19:30;;;;;;;2.88;2.67;;;;;;;20.25;51.00;97223.63;5122333;28;20051;-78
2022/08/08 07:22:03;;;;;;;5.88;2.40;;;;;;;20.36;50.68;97222.81;5111412;28;20171;-78
2022/08/08 07:24:45;;;;;;;2.47;2.28;;;;;;;20.49;50.53;97225.25;5110983;28;20075;-80
2022/08/08 07:27:15;;;;;;;2.42;2.10;;;;;;;20.61;50.06;97229.78;5113559;28;20088;-80
2022/08/08 07:29:44;;;;;;;3.67;2.47;;;;;;;20.72;49.60;97227.09;5114275;28;20059;-80
2022/08/08 07:32:32;;;;;;;3.55;2.60;;;;;;;20.86;50.23;97225.03;5098548;28;20457;-79
2022/08/08 07:35:04;;;;;;;2.88;2.17;;;;;;;20.99;49.31;97221.34;5113330;28;20040;-79
2022/08/08 07:37:36;;;;;;;2.60;2.40;;;;;;;21.11;49.36;97223.97;5113160;28;20047;-80
2022/08/08 07:40:24;;;;;;;3.63;2.70;;;;;;;21.25;48.45;97229.81;5106816;28;20047;-79
2022/08/08 07:43:01;;;;;;;3.80;2.67;;;;;;;21.35;48.08;97224.72;5120315;28;20066;-80
2022/08/08 07:45:35;;;;;;;2.50;2.30;;;;;;;21.48;48.14;97228.97;5105005;28;20067;-80
2022/08/08 07:48:23;;;;;;;2.03;1.92;;;;;;;21.61;47.47;97226.03;5103642;28;20048;-79
2022/08/08 07:50:57;;;;;;;3.05;2.05;;;;;;;21.74;47.54;97233.72;5110294;28;20073;-80
2022/08/08 07:53:31;;;;;;;2.05;1.88;;;;;;;21.88;47.43;97233.44;5120666;28;20069;-79
2022/08/08 07:56:19;;;;;;;3.97;2.00;;;;;;;22.02;46.84;97237.41;5118295;28;20047;-78
2022/08/08 07:59:09;;;;;;;2.00;1.80;;;;;;;22.16;45.99;97240.56;5117750;28;20416;-78
2022/08/08 08:01:53;;;;;;;2.78;2.20;;;;;;;22.31;45.94;97232.06;5115754;28;20485;-80
2022/08/08 08:04:45;;;;;;;3.75;1.48;;;;;;;22.45;45.03;97236.00;5096305;28;20452;-76
2022/08/08 08:07:18;;;;;;;2.97;2.38;;;;;;;22.56;45.01;97237.75;5113145;28;20047;-76
2022/08/08 08:09:55;;;;;;;4.10;3.03;;;;;;;22.68;44.82;97237.69;5095022;28;20151;-76
2022/08/08 08:12:24;;;;;;;2.72;2.08;;;;;;;22.83;44.86;97243.22;5108342;28;20039;-78
2022/08/08 08:15:11;;;;;;;4.40;2.30;;;;;;;22.97;43.79;97246.34;5115226;28;20043;-78
2022/08/08 08:17:44;;;;;;;4.53;2.30;;;;;;;23.07;43.31;97244.91;5114500;28;20051;-78
2022/08/08 08:20:18;;;;;;;5.80;2.05;;;;;;;23.19;43.51;97241.06;5114503;28;20108;-78
2022/08/08 08:22:48;;;;;;;1.77;1.67;;;;;;;23.32;43.04;97236.44;5104086;27;20052;-76
2022/08/08 08:25:15;;;;;;;2.85;2.25;;;;;;;23.45;43.39;97242.19;5109200;28;20050;-81
2022/08/08 08:28:03;;;;;;;2.22;1.70;;;;;;;23.60;42.81;97243.44;5095871;28;20044;-77
2022/08/08 08:30:35;;;;;;;;;;;;;;;23.73;42.02;97242.25;5103421;28;20075;-77
2022/08/08 08:33:03;;;;;;;2.53;1.88;;;;;;;23.85;40.60;97235.75;5113728;28;19974;-72
2022/08/08 08:35:31;;;;;;;2.65;1.55;;;;;;;23.97;40.64;97237.44;5113692;28;20135;-71
2022/08/08 08:38:19;;;;;;;2.88;2.10;;;;;;;24.11;40.25;97237.84;5114031;28;20061;-71
2022/08/08 08:40:48;;;;;;;2.13;1.60;;;;;;;24.24;39.48;97242.75;5113786;28;20047;-71
2022/08/08 08:43:19;;;;;;;2.40;1.75;;;;;;;24.34;39.85;97242.84;5113559;28;20505;-71
2022/08/08 08:45:54;;;;;;;2.22;2.03;;;;;;;24.46;39.21;97239.97;5113870;28;20127;-72
2022/08/08 08:48:24;;;;;;;2.03;1.30;;;;;;;24.57;38.20;97240.91;5113874;28;20054;-72
2022/08/08 08:50:54;;;;;;;1.48;1.33;;;;;;;24.67;37.63;97246.31;5113290;28;20139;-72
2022/08/08 08:53:25;;;;;;;2.58;1.38;;;;;;;24.76;36.69;97236.75;5113133;28;20067;-72
2022/08/08 08:56:14;;;;;;;3.33;1.30;;;;;;;24.87;36.79;97248.31;5093102;28;20043;-75
2022/08/08 08:58:51;;;;;;;2.03;1.60;;;;;;;24.95;36.61;97245.16;5107315;28;20048;-73
2022/08/08 09:01:20;;;;;;;1.23;1.13;;;;;;;25.03;36.16;97250.00;5113012;28;20134;-72
2022/08/08 09:03:50;;;;;;;1.10;1.10;;;;;;;25.13;34.79;97251.13;5102854;28;20577;-72
2022/08/08 09:06:21;;;;;;;1.00;0.90;;;;;;;25.18;33.97;97245.81;5113216;28;20043;-72
2022/08/08 09:09:03;;;;;;;1.65;1.02;;;;;;;25.25;33.47;97247.22;5113226;28;20054;-74
2022/08/08 09:11:34;;;;;;;1.48;1.20;;;;;;;25.34;34.50;97250.16;5113262;28;20048;-74
2022/08/08 09:14:16;;;;;;;2.25;1.20;;;;;;;25.46;35.08;97261.44;5112998;28;20044;-72
2022/08/08 09:16:44;;;;;;;1.15;0.70;;;;;;;25.53;33.92;97261.19;5113776;28;20047;-71
2022/08/08 09:19:16;;;;;;;4.07;1.50;;;;;;;25.60;34.46;97248.38;5114022;28;20048;-71
2022/08/08 09:22:06;;;;;;;1.10;1.00;;;;;;;25.72;34.11;97255.41;5114690;28;20280;-73
2022/08/08 09:24:35;;;;;;;1.33;1.23;;;;;;;25.78;33.49;97257.81;5108864;28;20043;-73
2022/08/08 09:27:08;;;;;;;3.58;0.90;;;;;;;25.83;32.21;97249.81;5113699;28;20416;-72
2022/08/08 09:30:01;;;;;;;0.63;0.60;;;;;;;25.86;31.74;97253.81;5112996;28;20054;-72
2022/08/08 09:32:36;;;;;;;2.13;1.10;;;;;;;25.89;31.83;97262.16;5112625;28;20052;-71
2022/08/08 09:35:08;;;;;;;1.02;0.80;;;;;;;25.92;31.89;97250.13;5104517;28;20048;-72
2022/08/08 09:37:46;;;;;;;2.38;1.30;;;;;;;25.97;32.53;97252.00;5106277;28;20050;-71
2022/08/08 09:40:33;;;;;;;1.33;0.70;;;;;;;26.00;30.81;97256.78;5098540;28;20501;-71
2022/08/08 09:43:28;;;;;;;2.97;0.80;;;;;;;26.03;30.61;97250.94;5111407;28;20079;-73
2022/08/08 09:46:17;;;;;;;1.00;0.90;;;;;;;26.07;31.93;97250.13;5112863;28;20043;-72
2022/08/08 09:48:57;;;;;;;1.40;0.80;;;;;;;26.15;30.85;97253.34;5112298;28;20509;-73
2022/08/08 09:51:48;;;;;;;0.57;0.57;;;;;;;26.18;31.26;97248.28;5111937;28;20054;-73
2022/08/08 09:54:41;;;;;;;0.75;0.52;;;;;;;26.21;29.74;97252.28;5106873;28;20044;-72
2022/08/08 09:57:30;;;;;;;1.75;0.98;;;;;;;26.22;29.77;97254.69;5112185;28;20154;-72
2022/08/08 10:00:15;;;;;;;1.00;0.75;;;;;;;26.25;30.20;97254.16;5109965;28;20366;-72
2022/08/08 10:03:04;;;;;;;0.93;0.70;;;;;;;26.24;29.89;97257.91;5102653;28;20048;-73
2022/08/08 10:05:35;;;;;;;0.50;0.50;;;;;;;26.22;29.88;97249.34;5109052;28;20070;-73
2022/08/08 10:08:06;;;;;;;0.60;0.50;;;;;;;26.23;29.79;97245.59;5104039;28;20043;-73
2022/08/08 10:10:38;;;;;;;1.25;0.68;;;;;;;26.27;28.47;97245.88;5111443;28;20130;-73
2022/08/08 10:13:20;;;;;;;2.50;1.00;;;;;;;26.30;28.73;97246.16;5107853;28;20050;-73
2022/08/08 10:15:53;;;;;;;2.63;0.75;;;;;;;26.35;29.36;97242.69;5101026;28;20055;-72
2022/08/08 10:18:30;;;;;;;1.17;0.70;;;;;;;26.37;29.41;97235.19;5096249;28;20039;-73
2022/08/08 10:21:03;;;;;;;0.73;0.50;;;;;;;26.40;29.87;97228.50;5111024;28;20466;-72
2022/08/08 10:23:51;;;;;;;1.37;0.60;;;;;;;26.44;29.82;97237.59;5110493;28;20044;-72
2022/08/08 10:26:29;;;;;;;1.52;0.77;;;;;;;26.44;29.97;97240.28;5112034;28;20291;-72
2022/08/08 10:29:22;;;;;;;1.02;0.80;;;;;;;26.47;30.75;97235.16;5112234;28;20089;-72
2022/08/08 10:34:50;;;;;;;1.10;0.80;;;;;;;26.58;30.71;97232.53;5111878;28;20595;-72
2022/08/08 10:37:27;;;;;;;0.80;0.80;;;;;;;26.63;31.59;97227.97;5111939;28;20048;-73
2022/08/08 10:39:57;;;;;;;1.00;0.90;;;;;;;26.67;30.67;97234.38;5111974;28;20043;-73
2022/08/08 10:42:32;;;;;;;0.85;0.85;;;;;;;26.70;31.50;97230.38;5111733;28;20051;-72
2022/08/08 10:45:05;;;;;;;1.02;0.82;;;;;;;26.76;31.92;97236.50;5111692;28;20448;-73
2022/08/08 10:47:35;;;;;;;2.55;0.82;;;;;;;26.80;31.59;97232.22;5111776;28;20044;-73
2022/08/08 10:50:10;;;;;;;1.65;0.82;;;;;;;26.85;30.55;97229.53;5111483;28;20054;-73
2022/08/08 10:52:43;;;;;;;2.85;1.00;;;;;;;26.88;30.44;97223.66;5111736;28;20063;-73
2022/08/08 10:55:13;;;;;;;1.88;0.88;;;;;;;26.88;30.25;97229.78;5111511;28;20528;-73
2022/08/08 10:58:03;;;;;;;1.17;0.90;;;;;;;26.89;30.00;97228.72;5113430;28;20052;-81
2022/08/08 11:00:35;;;;;;;2.47;0.70;;;;;;;26.90;29.38;97233.00;5114770;28;20059;-82
2022/08/08 11:03:23;;;;;;;1.83;0.77;;;;;;;26.89;29.26;97223.38;5110741;28;20044;-80
2022/08/08 11:06:12;;;;;;;1.38;0.80;;;;;;;26.87;29.40;97219.34;5094294;28;20490;-81
2022/08/08 11:08:40;;;;;;;2.40;0.85;;;;;;;26.86;29.62;97236.50;5113496;28;20075;-81
2022/08/08 11:11:20;;;;;;;1.35;1.02;;;;;;;26.80;29.62;97221.50;5120708;28;20138;-81
2022/08/08 11:14:10;;;;;;;0.65;0.65;;;;;;;26.77;29.62;97222.06;5117520;28;20044;-82
2022/08/08 11:16:43;;;;;;;1.95;0.88;;;;;;;26.79;29.98;97219.94;5083024;22;20147;-79
2022/08/08 11:19:14;;;;;;;3.72;1.00;;;;;;;26.81;29.44;97220.47;5055036;28;20068;-79
2022/08/08 11:21:45;;;;;;;1.40;0.90;;;;;;;26.81;29.92;97212.44;5065701;28;20506;-80
2022/08/08 11:24:25;;;;;;;0.85;0.85;;;;;;;26.84;29.58;97218.03;5071199;28;20556;-79
2022/08/08 11:26:57;;;;;;;2.17;0.85;;;;;;;26.90;30.01;97216.16;5076595;28;20052;-80
2022/08/08 11:29:26;;;;;;;1.85;1.15;;;;;;;26.97;29.46;97213.97;5080961;28;20126;-79
2022/08/08 11:32:18;;;;;;;0.90;0.68;;;;;;;27.07;28.80;97210.44;5096558;28;20048;-80
2022/08/08 11:42:54;;;;;;;0.82;0.60;;;;;;;27.26;28.58;97208.00;4959431;28;20074;-80
2022/08/08 11:45:22;;;;;;;3.55;0.80;;;;;;;27.31;28.20;97200.75;4960848;28;20043;-80
2022/08/08 11:47:52;;;;;;;1.15;0.63;;;;;;;27.35;28.36;97206.34;4961745;29;20403;-80
2022/08/08 11:50:32;;;;;;;0.90;0.90;;;;;;;27.36;28.62;97202.63;4961828;29;20058;-79
2022/08/08 11:53:01;;;;;;;1.95;0.77;;;;;;;27.40;28.23;97198.31;4960925;29;20805;-80
2022/08/08 11:55:34;;;;;;;2.10;0.70;;;;;;;27.45;28.52;97194.81;4953946;29;20098;-80
2022/08/08 11:58:05;;;;;;;1.35;0.80;;;;;;;27.52;29.03;97196.09;4957942;29;20134;-79
2022/08/08 12:00:45;;;;;;;0.70;0.70;;;;;;;27.62;28.47;97192.56;4957843;29;20729;-79
2022/08/08 12:03:23;;;;;;;1.65;0.50;;;;;;;27.70;27.79;97185.81;4957053;29;20047;-80
2022/08/08 12:05:57;;;;;;;2.55;0.90;;;;;;;27.73;27.02;97193.31;4960185;28;20051;-80
2022/08/08 13:18:13;;;;;;;2.90;0.50;;;;;;;28.05;25.32;97166.00;5632624;22;20059;-79
2022/08/08 13:23:53;;;;;;;0.63;0.57;;;;;;;28.03;25.02;97152.09;4978844;28;20195;-80
2022/08/08 13:26:22;;;;;;;0.93;0.60;;;;;;;28.06;25.63;97148.06;4975885;28;21865;-80
2022/08/08 13:32:02;;;;;;;0.98;0.57;;;;;;;28.09;24.62;97144.78;4968125;28;20431;-78
2022/08/08 13:34:38;;;;;;;0.82;0.60;;;;;;;28.09;25.02;97142.13;4956167;29;20094;-78
2022/08/08 13:37:08;;;;;;;2.05;0.82;;;;;;;28.10;24.98;97139.16;4953361;29;20113;-79
2022/08/08 13:53:40;;;;;;;1.75;0.40;;;;;;;28.14;24.69;97136.69;4715817;23;20078;-81
2022/08/08 13:56:30;;;;;;;1.45;0.65;;;;;;;28.10;24.58;97135.69;4974360;28;20047;-80
2022/08/08 13:58:58;;;;;;;1.13;0.50;;;;;;;28.10;24.66;97135.69;4973914;28;20057;-80
2022/08/08 14:01:30;;;;;;;0.52;0.52;;;;;;;28.10;23.89;97141.06;4973496;28;20543;-80
2022/08/08 14:04:23;;;;;;;0.40;0.40;;;;;;;28.06;24.23;97130.06;5194575;23;20050;-82
2022/08/08 14:09:46;;;;;;;1.25;0.70;;;;;;;28.03;24.04;97119.09;4981413;28;20425;-82
2022/08/08 14:34:50;;;;;;;0.68;0.68;;;;;;;28.05;24.63;97108.91;4400369;23;20081;-81
2022/08/08 14:37:19;;;;;;;1.38;0.50;;;;;;;28.05;24.56;97103.53;4978894;28;20105;-82
2022/08/08 14:40:01;;;;;;;0.65;0.50;;;;;;;28.04;24.80;97104.63;4977808;28;20065;-80
2022/08/08 14:42:36;;;;;;;3.08;0.40;;;;;;;28.04;24.37;97104.63;4981278;28;20545;-81
2022/08/08 14:45:25;;;;;;;1.35;0.50;;;;;;;28.04;24.12;97104.63;4979550;28;20049;-81
2022/08/08 14:48:02;;;;;;;2.15;0.68;;;;;;;28.01;24.52;97094.44;4981306;28;20070;-81
2022/08/08 14:50:34;;;;;;;0.70;0.50;;;;;;;27.99;24.50;97097.44;4978085;28;20043;-81
2022/08/08 14:53:09;;;;;;;0.88;0.40;;;;;;;27.99;24.50;97092.06;4979223;28;20516;-80
2022/08/08 14:55:40;;;;;;;1.58;0.60;;;;;;;28.01;24.92;97099.81;4981450;28;20054;-81